Saint Anne, Missouri
Current Conditions -  °F | °C
As of 12:51 PM on Saturday 25 Oct 2014 (Local Time) from KSTL Reporting Station
Few Clouds Few Clouds  
Wind Chill: 78°   Ceiling: Unl
Heat Index: 80°   Visibility: 10mi
Dew Point: 62°   Wind: 7mph
Humidity: 58%   Direction: 250°WSW
Pressure: 30.03"   Gusts: NA
Location:  38.7263°N, 90.3885°W
Report Text: KSTL 251751Z 25006KT 10SM FEW250 26/17 A3003 RMK AO2 SLP162 T02560167 10256 20139 58004
Loading
Personal Weather Stations






























Interactive Weather Map
Tropical Storm Tracking
New forecast layout! Learn more

10-Day Weather Forecast

Advertisements
Track Severe Weather on mobile